createdAt,value
2018-03-23T00:00:03.181Z,18.80
2018-03-23T00:02:29.730Z,18.90
2018-03-23T00:04:56.793Z,18.70
2018-03-23T00:07:23.248Z,18.70
2018-03-23T00:09:50.560Z,18.70
2018-03-23T00:12:17.040Z,18.90
2018-03-23T00:14:44.223Z,18.90
2018-03-23T00:17:11.424Z,18.90
2018-03-23T00:19:37.858Z,18.70
2018-03-23T00:22:04.570Z,18.70
2018-03-23T00:24:31.167Z,18.80
2018-03-23T00:26:58.201Z,18.60
2018-03-23T00:29:24.626Z,18.60
2018-03-23T00:31:51.499Z,18.60
2018-03-23T00:34:18.115Z,18.60
2018-03-23T00:36:45.196Z,18.80
2018-03-23T00:39:12.818Z,18.60
2018-03-23T00:41:39.706Z,18.70
2018-03-23T00:44:06.377Z,18.60
2018-03-23T00:46:33.561Z,18.70
2018-03-23T00:49:00.149Z,18.70
2018-03-23T00:51:26.595Z,18.70
2018-03-23T00:53:53.231Z,18.70
2018-03-23T00:56:19.879Z,18.60
2018-03-23T00:58:46.822Z,18.60
2018-03-23T01:01:14.069Z,18.70
2018-03-23T01:03:40.667Z,18.70
2018-03-23T01:06:07.261Z,18.70
2018-03-23T01:08:33.686Z,18.60
2018-03-23T01:11:00.442Z,18.80
2018-03-23T01:13:27.494Z,18.60
2018-03-23T01:15:53.902Z,18.80
2018-03-23T01:18:20.680Z,18.50
2018-03-23T01:20:47.126Z,18.20
2018-03-23T01:23:13.535Z,18.70
2018-03-23T01:25:40.831Z,18.80
2018-03-23T01:28:07.254Z,18.50
2018-03-23T01:30:34.431Z,18.60
2018-03-23T01:33:00.829Z,18.60
2018-03-23T01:35:27.438Z,18.60
2018-03-23T01:37:54.036Z,18.60
2018-03-23T01:40:21.089Z,18.60
2018-03-23T01:42:47.539Z,18.60
2018-03-23T01:45:14.265Z,18.60
2018-03-23T01:47:41.182Z,18.60
2018-03-23T01:50:07.563Z,18.70
2018-03-23T01:52:34.412Z,18.50
2018-03-23T01:55:00.845Z,18.50
2018-03-23T01:57:27.456Z,18.60
2018-03-23T01:59:54.650Z,18.50
2018-03-23T02:02:21.041Z,18.60
2018-03-23T02:04:47.616Z,18.60
2018-03-23T02:07:14.272Z,18.60
2018-03-23T02:09:40.689Z,18.60
2018-03-23T02:12:07.804Z,18.60
2018-03-23T02:14:34.401Z,18.60
2018-03-23T02:17:01.252Z,18.60
2018-03-23T02:19:27.696Z,18.60
2018-03-23T02:21:54.227Z,18.60
2018-03-23T02:24:21.276Z,18.50
2018-03-23T02:26:48.448Z,18.40
2018-03-23T02:29:15.761Z,18.70
2018-03-23T02:31:42.436Z,18.00
2018-03-23T02:34:08.831Z,18.50
2018-03-23T02:36:36.072Z,18.50
2018-03-23T02:41:59.530Z,18.60
2018-03-23T02:44:26.954Z,18.50
2018-03-23T02:46:54.132Z,18.20
2018-03-23T02:49:20.658Z,18.20
2018-03-23T02:51:47.098Z,18.20
2018-03-23T02:54:13.525Z,18.20
2018-03-23T02:56:40.603Z,18.20
2018-03-23T02:59:07.658Z,18.20
2018-03-23T03:01:34.257Z,18.20
2018-03-23T03:04:00.837Z,18.50
2018-03-23T03:06:27.244Z,18.30
2018-03-23T03:08:53.859Z,18.20
2018-03-23T03:11:21.135Z,18.10
2018-03-23T03:13:47.585Z,18.20
2018-03-23T03:16:13.974Z,18.20
2018-03-23T03:18:41.307Z,18.20
2018-03-23T03:21:07.721Z,18.20
2018-03-23T03:23:34.806Z,18.10
2018-03-23T03:26:01.452Z,18.20
2018-03-23T03:28:28.196Z,18.20
2018-03-23T03:30:55.246Z,18.10
2018-03-23T03:33:22.191Z,17.90
2018-03-23T03:35:48.699Z,18.10
2018-03-23T03:38:15.828Z,18.20
2018-03-23T03:40:42.373Z,18.10
2018-03-23T03:43:08.788Z,18.20
2018-03-23T03:45:35.943Z,18.10
2018-03-23T03:48:02.772Z,18.20
2018-03-23T03:50:29.799Z,18.20
2018-03-23T03:52:56.224Z,17.90
2018-03-23T03:55:22.920Z,18.00
2018-03-23T03:57:49.345Z,18.10
2018-03-23T04:00:16.267Z,18.00
2018-03-23T04:02:43.860Z,18.00
2018-03-23T04:05:10.285Z,18.20
2018-03-23T04:07:37.464Z,18.10
2018-03-23T04:10:04.089Z,18.10
2018-03-23T04:12:30.501Z,18.00
2018-03-23T04:14:57.468Z,18.00
2018-03-23T04:17:24.694Z,18.10
2018-03-23T04:19:51.132Z,17.90
2018-03-23T04:22:17.560Z,18.10
2018-03-23T04:24:44.084Z,18.10
2018-03-23T04:27:11.375Z,18.10
2018-03-23T04:29:38.428Z,18.10
2018-03-23T04:32:05.133Z,18.10
2018-03-23T04:34:31.747Z,18.00
2018-03-23T04:36:58.197Z,18.00
2018-03-23T04:39:24.764Z,18.60
2018-03-23T04:41:52.400Z,19.30
2018-03-23T04:44:19.412Z,19.30
2018-03-23T04:46:46.110Z,20.00
2018-03-23T04:49:12.506Z,20.30
2018-03-23T04:51:38.926Z,20.90
2018-03-23T04:54:06.128Z,21.00
2018-03-23T04:56:33.191Z,21.10
2018-03-23T04:58:59.593Z,21.10
2018-03-23T05:01:26.262Z,21.60
2018-03-23T05:03:52.661Z,21.30
2018-03-23T05:06:19.715Z,21.80
2018-03-23T05:08:46.243Z,21.80
2018-03-23T05:11:12.838Z,21.80
2018-03-23T05:13:39.246Z,21.80
2018-03-23T05:16:05.777Z,22.00
2018-03-23T05:18:32.791Z,22.00
2018-03-23T05:21:00.617Z,22.00
2018-03-23T05:23:27.200Z,22.00
2018-03-23T05:25:53.917Z,22.30
2018-03-23T05:28:20.317Z,22.10
2018-03-23T05:30:47.064Z,22.30
2018-03-23T05:33:14.218Z,22.10
2018-03-23T05:35:40.628Z,22.10
2018-03-23T05:38:08.068Z,21.80
2018-03-23T05:40:34.476Z,21.80
2018-03-23T05:43:01.004Z,21.70
2018-03-23T05:45:28.191Z,21.40
2018-03-23T05:47:54.604Z,21.80
2018-03-23T05:50:21.257Z,21.60
2018-03-23T05:52:48.006Z,21.10
2018-03-23T05:55:14.409Z,21.20
2018-03-23T05:57:41.450Z,21.00
2018-03-23T06:00:08.801Z,21.00
2018-03-23T06:02:36.588Z,21.00
2018-03-23T06:05:03.602Z,21.00
2018-03-23T06:07:30.133Z,21.00
2018-03-23T06:09:57.353Z,21.00
2018-03-23T06:12:23.772Z,21.10
2018-03-23T06:14:50.169Z,21.20
2018-03-23T06:17:17.374Z,21.60
2018-03-23T06:19:43.760Z,21.30
2018-03-23T06:22:10.235Z,21.60
2018-03-23T06:24:37.513Z,21.80
2018-03-23T06:27:04.397Z,21.50
2018-03-23T06:29:31.996Z,21.40
2018-03-23T06:31:58.412Z,21.70
2018-03-23T06:34:24.824Z,21.80
2018-03-23T06:36:51.492Z,21.70
2018-03-23T06:39:18.637Z,21.80
2018-03-23T06:41:45.098Z,21.90
2018-03-23T06:44:11.947Z,21.70
2018-03-23T06:46:38.373Z,21.80
2018-03-23T06:49:04.787Z,21.70
2018-03-23T06:51:31.870Z,21.80
2018-03-23T06:53:59.272Z,21.80
2018-03-23T06:56:25.815Z,21.80
2018-03-23T06:58:52.220Z,21.80
2018-03-23T07:01:19.571Z,21.70
2018-03-23T07:03:45.993Z,21.80
2018-03-23T07:06:13.065Z,21.70
2018-03-23T07:08:40.073Z,21.20
2018-03-23T07:11:06.504Z,21.80
2018-03-23T07:13:33.223Z,21.60
2018-03-23T07:16:00.401Z,21.20
2018-03-23T07:18:27.496Z,21.50
2018-03-23T07:20:54.914Z,21.40
2018-03-23T07:23:21.927Z,21.10
2018-03-23T07:25:48.364Z,21.70
2018-03-23T07:28:14.801Z,21.20
2018-03-23T07:30:42.111Z,21.00
2018-03-23T07:33:09.666Z,20.90
2018-03-23T07:35:36.559Z,20.80
2018-03-23T07:38:03.234Z,19.40
2018-03-23T07:40:30.376Z,19.90
2018-03-23T07:42:57.554Z,19.60
2018-03-23T07:45:25.359Z,20.00
2018-03-23T07:47:51.790Z,20.00
2018-03-23T07:50:18.480Z,20.00
2018-03-23T07:52:44.892Z,20.10
2018-03-23T07:55:11.939Z,20.00
2018-03-23T07:57:38.492Z,20.10
2018-03-23T08:00:06.006Z,20.10
2018-03-23T08:02:32.451Z,19.60
2018-03-23T08:04:59.363Z,19.50
2018-03-23T08:07:25.912Z,20.10
2018-03-23T08:09:52.314Z,19.50
2018-03-23T08:12:18.746Z,19.50
2018-03-23T08:14:45.417Z,19.70
2018-03-23T08:17:12.674Z,20.00
2018-03-23T08:19:39.632Z,20.10
2018-03-23T08:22:06.056Z,20.00
2018-03-23T08:24:33.891Z,20.10
2018-03-23T08:27:00.749Z,19.40
2018-03-23T08:29:27.950Z,19.50
2018-03-23T08:31:54.370Z,19.40
2018-03-23T08:34:21.268Z,19.40
2018-03-23T08:36:47.700Z,19.90
2018-03-23T08:39:14.721Z,19.90
2018-03-23T08:41:41.805Z,19.50
2018-03-23T08:44:09.386Z,19.40
2018-03-23T08:46:36.092Z,20.00
2018-03-23T08:49:02.525Z,19.40
2018-03-23T08:51:29.564Z,19.50
2018-03-23T08:53:55.978Z,19.40
2018-03-23T08:56:22.861Z,19.30
2018-03-23T08:58:50.421Z,19.30
2018-03-23T09:01:18.040Z,19.60
2018-03-23T09:03:44.896Z,19.40
2018-03-23T09:06:11.343Z,19.60
2018-03-23T09:08:38.025Z,19.30
2018-03-23T09:11:05.684Z,19.30
2018-03-23T09:13:32.751Z,19.50
2018-03-23T09:15:59.441Z,19.40
2018-03-23T09:18:26.295Z,20.00
2018-03-23T09:20:53.832Z,20.10
2018-03-23T09:23:21.660Z,20.80
2018-03-23T09:25:49.266Z,20.80
2018-03-23T09:28:17.695Z,21.00
2018-03-23T09:30:45.800Z,21.00
2018-03-23T09:33:12.857Z,21.00
2018-03-23T09:35:40.013Z,21.10
2018-03-23T09:38:07.048Z,21.10
2018-03-23T09:40:33.463Z,21.10
2018-03-23T09:43:01.061Z,21.30
2018-03-23T09:45:28.880Z,21.90
2018-03-23T09:47:55.290Z,21.90
2018-03-23T09:50:22.977Z,22.60
2018-03-23T09:52:50.537Z,22.10
2018-03-23T09:55:17.038Z,22.20
2018-03-23T09:57:44.617Z,22.20
2018-03-23T10:00:12.209Z,21.70
2018-03-23T10:02:39.055Z,21.80
2018-03-23T10:05:06.382Z,21.80
2018-03-23T10:07:33.230Z,21.80
2018-03-23T10:09:59.772Z,21.90
2018-03-23T10:12:26.186Z,22.00
2018-03-23T10:14:53.061Z,21.80
2018-03-23T10:17:19.524Z,21.90
2018-03-23T10:19:46.905Z,21.70
2018-03-23T10:22:14.198Z,21.90
2018-03-23T10:24:40.614Z,21.70
2018-03-23T10:27:07.039Z,21.70
2018-03-23T10:29:34.348Z,21.60
2018-03-23T10:32:01.809Z,21.60
2018-03-23T10:34:28.670Z,21.10
2018-03-23T10:36:55.807Z,21.00
2018-03-23T10:39:22.226Z,21.10
2018-03-23T10:41:49.103Z,21.10
2018-03-23T10:44:16.611Z,21.10
2018-03-23T10:46:43.532Z,21.00
2018-03-23T10:49:11.178Z,20.90
2018-03-23T10:51:37.592Z,20.90
2018-03-23T10:54:04.983Z,21.00
2018-03-23T10:56:32.515Z,21.00
2018-03-23T10:58:59.844Z,20.90
2018-03-23T11:01:31.801Z,20.80
2018-03-23T11:03:58.715Z,20.80
2018-03-23T11:06:25.700Z,20.90
2018-03-23T11:08:53.230Z,20.80
2018-03-23T11:11:20.187Z,20.80
2018-03-23T11:13:46.924Z,20.90
2018-03-23T11:16:13.989Z,20.90
2018-03-23T11:18:41.022Z,20.30
2018-03-23T11:21:08.712Z,20.80
2018-03-23T11:23:36.225Z,20.80
2018-03-23T11:26:03.220Z,20.10
2018-03-23T11:28:30.356Z,20.70
2018-03-23T11:30:57.207Z,20.30
2018-03-23T11:33:24.119Z,21.00
2018-03-23T11:35:51.780Z,21.10
2018-03-23T11:38:18.193Z,21.40
2018-03-23T11:40:45.628Z,21.90
2018-03-23T11:43:12.797Z,21.90
2018-03-23T11:45:39.204Z,22.00
2018-03-23T11:48:06.327Z,22.80
2018-03-23T11:50:33.014Z,22.60
2018-03-23T11:52:59.434Z,22.90
2018-03-23T11:55:26.053Z,22.90
2018-03-23T11:57:52.632Z,23.10
2018-03-23T12:00:19.113Z,23.20
2018-03-23T12:02:45.554Z,23.20
2018-03-23T12:05:13.625Z,23.20
2018-03-23T12:07:41.421Z,23.10
2018-03-23T12:10:07.847Z,22.90
2018-03-23T12:12:34.401Z,23.10
2018-03-23T12:15:01.076Z,22.90
2018-03-23T12:17:27.492Z,22.90
2018-03-23T12:19:54.283Z,23.00
2018-03-23T12:22:20.727Z,22.60
2018-03-23T12:24:47.876Z,21.80
2018-03-23T12:27:15.941Z,21.70
2018-03-23T12:29:43.738Z,21.90
2018-03-23T12:32:11.896Z,21.80
2018-03-23T12:34:39.442Z,21.70
2018-03-23T12:37:06.397Z,21.60
2018-03-23T12:39:34.382Z,21.20
2018-03-23T12:42:01.742Z,21.20
2018-03-23T12:44:28.171Z,21.10
2018-03-23T12:46:55.224Z,21.20
2018-03-23T12:49:22.694Z,21.60
2018-03-23T12:51:49.112Z,21.30
2018-03-23T12:54:16.036Z,21.70
2018-03-23T12:56:43.496Z,21.90
2018-03-23T12:59:10.425Z,21.80
2018-03-23T13:01:38.257Z,21.90
2018-03-23T13:04:05.830Z,21.90
2018-03-23T13:06:32.782Z,22.00
2018-03-23T13:08:59.705Z,22.00
2018-03-23T13:11:26.584Z,22.00
2018-03-23T13:13:53.386Z,22.00
2018-03-23T13:16:19.802Z,22.10
2018-03-23T13:18:46.442Z,22.00
2018-03-23T13:21:14.170Z,21.90
2018-03-23T13:23:41.301Z,21.80
2018-03-23T13:26:08.360Z,21.80
2018-03-23T13:28:35.440Z,21.80
2018-03-23T13:31:01.928Z,21.70
2018-03-23T13:33:28.928Z,21.70
2018-03-23T13:35:55.897Z,21.80
2018-03-23T13:38:23.453Z,21.70
2018-03-23T13:40:51.345Z,21.60
2018-03-23T13:43:19.038Z,21.70
2018-03-23T13:45:45.927Z,21.60
2018-03-23T13:48:12.929Z,21.50
2018-03-23T13:50:39.931Z,21.60
2018-03-23T13:53:06.537Z,21.70
2018-03-23T13:55:34.017Z,21.70
2018-03-23T13:58:00.921Z,21.20
2018-03-23T14:00:34.474Z,21.60
2018-03-23T14:03:01.333Z,21.70
2018-03-23T14:05:27.761Z,21.20
2018-03-23T14:07:55.567Z,21.10
2018-03-23T14:10:23.926Z,21.60
2018-03-23T14:12:51.016Z,21.30
2018-03-23T14:15:17.454Z,21.20
2018-03-23T14:17:45.241Z,21.60
2018-03-23T14:20:11.625Z,21.60
2018-03-23T14:22:39.421Z,21.70
2018-03-23T14:25:07.493Z,21.70
2018-03-23T14:27:33.909Z,21.90
2018-03-23T14:30:00.739Z,21.80
2018-03-23T14:32:27.552Z,21.90
2018-03-23T14:34:54.972Z,21.90
2018-03-23T14:37:22.536Z,21.60
2018-03-23T14:39:49.983Z,21.70
2018-03-23T14:42:16.951Z,21.80
2018-03-23T14:44:43.969Z,21.70
2018-03-23T14:47:11.074Z,21.30
2018-03-23T14:49:38.247Z,21.10
2018-03-23T14:52:05.913Z,21.00
2018-03-23T14:54:32.841Z,21.10
2018-03-23T14:57:00.890Z,21.50
2018-03-23T14:59:27.375Z,21.00
2018-03-23T15:01:54.243Z,21.00
2018-03-23T15:04:21.397Z,21.10
2018-03-23T15:06:47.882Z,21.00
2018-03-23T15:09:14.531Z,20.90
2018-03-23T15:11:41.324Z,21.00
2018-03-23T15:14:17.052Z,20.90
2018-03-23T15:16:44.321Z,20.90
2018-03-23T15:19:11.833Z,20.80
2018-03-23T15:21:38.425Z,20.90
2018-03-23T15:24:05.089Z,20.90
2018-03-23T15:26:31.578Z,20.90
2018-03-23T15:28:58.907Z,20.90
2018-03-23T15:31:26.509Z,20.20
2018-03-23T15:33:53.390Z,20.30
2018-03-23T15:36:20.510Z,20.90
2018-03-23T15:38:47.136Z,20.90
2018-03-23T15:41:14.328Z,21.00
2018-03-23T15:43:42.280Z,21.50
2018-03-23T15:46:10.282Z,21.70
2018-03-23T15:48:37.306Z,21.70
2018-03-23T15:51:04.454Z,21.90
2018-03-23T15:53:31.346Z,22.60
2018-03-23T15:55:57.916Z,22.20
2018-03-23T15:58:24.355Z,22.30
2018-03-23T16:00:51.165Z,22.40
2018-03-23T16:03:17.610Z,22.50
2018-03-23T16:05:44.032Z,22.80
2018-03-23T16:08:11.139Z,22.20
2018-03-23T16:10:40.039Z,22.60
2018-03-23T16:13:07.684Z,22.10
2018-03-23T16:15:34.884Z,21.80
2018-03-23T16:18:01.365Z,21.90
2018-03-23T16:20:27.938Z,22.60
2018-03-23T16:22:54.756Z,22.70
2018-03-23T16:25:22.694Z,22.90
2018-03-23T16:27:50.765Z,22.60
2018-03-23T16:30:17.322Z,23.00
2018-03-23T16:32:44.653Z,22.90
2018-03-23T16:35:11.128Z,22.90
2018-03-23T16:37:37.804Z,23.00
2018-03-23T16:40:05.732Z,22.90
2018-03-23T16:42:33.630Z,22.50
2018-03-23T16:45:00.577Z,22.60
2018-03-23T16:47:27.177Z,22.40
2018-03-23T16:49:54.380Z,22.00
2018-03-23T16:52:20.835Z,21.90
2018-03-23T16:54:47.842Z,21.90
2018-03-23T16:57:15.493Z,21.10
2018-03-23T16:59:43.274Z,21.00
2018-03-23T17:02:10.971Z,21.20
2018-03-23T17:04:37.376Z,21.20
2018-03-23T17:07:04.101Z,21.60
2018-03-23T17:09:30.626Z,21.70
2018-03-23T17:11:59.093Z,21.90
2018-03-23T17:14:25.666Z,21.90
2018-03-23T17:16:52.169Z,22.00
2018-03-23T17:19:18.681Z,21.80
2018-03-23T17:21:46.835Z,22.10
2018-03-23T17:24:13.873Z,21.90
2018-03-23T17:26:40.783Z,22.60
2018-03-23T17:29:07.431Z,22.40
2018-03-23T17:31:34.572Z,22.90
2018-03-23T17:34:01.194Z,22.90
2018-03-23T17:36:28.320Z,23.20
2018-03-23T17:38:55.445Z,23.00
2018-03-23T17:41:22.589Z,23.10
2018-03-23T17:43:49.628Z,23.20
2018-03-23T17:46:17.924Z,23.00
2018-03-23T17:48:45.172Z,22.80
2018-03-23T17:51:12.481Z,23.00
2018-03-23T17:53:39.211Z,22.80
2018-03-23T17:56:06.348Z,22.70
2018-03-23T17:58:33.054Z,23.00
2018-03-23T18:01:00.375Z,22.60
2018-03-23T18:03:27.567Z,22.80
2018-03-23T18:05:55.470Z,22.50
2018-03-23T18:08:23.195Z,22.50
2018-03-23T18:10:49.686Z,22.10
2018-03-23T18:13:16.593Z,22.50
2018-03-23T18:15:43.426Z,22.00
2018-03-23T18:18:10.730Z,21.90
2018-03-23T18:20:37.319Z,21.90
2018-03-23T18:23:04.275Z,21.90
2018-03-23T18:25:31.385Z,21.80
2018-03-23T18:27:58.580Z,22.00
2018-03-23T18:30:25.748Z,22.00
2018-03-23T18:32:52.476Z,22.00
2018-03-23T18:35:19.341Z,22.70
2018-03-23T18:37:46.890Z,22.80
2018-03-23T18:40:13.514Z,22.70
2018-03-23T18:42:40.088Z,23.00
2018-03-23T18:45:07.694Z,22.00
2018-03-23T18:47:34.887Z,21.90
2018-03-23T18:50:03.358Z,22.10
2018-03-23T18:52:30.198Z,21.90
2018-03-23T18:54:57.078Z,21.80
2018-03-23T18:57:23.653Z,21.80
2018-03-23T18:59:51.855Z,21.40
2018-03-23T19:02:18.445Z,21.20
2018-03-23T19:04:45.305Z,21.20
2018-03-23T19:07:12.713Z,21.30
2018-03-23T19:09:40.056Z,21.60
2018-03-23T19:12:08.259Z,21.50
2018-03-23T19:14:35.105Z,21.10
2018-03-23T19:17:01.756Z,21.20
2018-03-23T19:19:28.996Z,21.00
2018-03-23T19:21:56.724Z,21.00
2018-03-23T19:24:23.362Z,21.10
2018-03-23T19:26:50.908Z,21.10
2018-03-23T19:29:17.872Z,21.00
2018-03-23T19:31:45.134Z,21.00
2018-03-23T19:34:12.341Z,20.90
2018-03-23T19:36:40.592Z,21.00
2018-03-23T19:39:08.401Z,21.10
2018-03-23T19:41:35.129Z,21.10
2018-03-23T19:44:03.164Z,20.70
2018-03-23T19:46:30.958Z,21.00
2018-03-23T19:48:59.716Z,21.00
2018-03-23T19:51:26.387Z,21.10
2018-03-23T19:53:53.921Z,21.50
2018-03-23T19:56:21.319Z,21.60
2018-03-23T19:58:48.758Z,21.70
2018-03-23T20:01:16.574Z,21.80
2018-03-23T20:03:44.859Z,21.80
2018-03-23T20:06:13.497Z,21.80
2018-03-23T20:08:40.526Z,21.80
2018-03-23T20:11:08.006Z,21.90
2018-03-23T20:13:34.444Z,21.80
2018-03-23T20:16:01.588Z,21.80
2018-03-23T20:18:28.145Z,21.80
2018-03-23T20:21:01.177Z,21.70
2018-03-23T20:23:27.863Z,21.10
2018-03-23T20:25:55.109Z,21.20
2018-03-23T20:28:28.917Z,21.60
2018-03-23T20:30:55.447Z,21.10
2018-03-23T20:33:21.968Z,21.00
2018-03-23T20:35:49.399Z,21.00
2018-03-23T20:38:17.328Z,21.60
2018-03-23T20:40:44.113Z,21.50
2018-03-23T20:43:10.972Z,21.70
2018-03-23T20:45:38.400Z,22.30
2018-03-23T20:48:05.782Z,21.90
2018-03-23T20:50:33.219Z,22.70
2018-03-23T20:53:00.495Z,22.80
2018-03-23T20:55:29.353Z,22.60
2018-03-23T20:57:56.444Z,22.80
2018-03-23T21:00:24.244Z,23.00
2018-03-23T21:02:51.425Z,22.80
2018-03-23T21:05:18.435Z,23.00
2018-03-23T21:07:45.850Z,23.30
2018-03-23T21:10:13.224Z,22.90
2018-03-23T21:12:39.996Z,23.10
2018-03-23T21:15:07.645Z,23.40
2018-03-23T21:17:34.477Z,23.10
2018-03-23T21:20:01.753Z,23.40
2018-03-23T21:22:28.476Z,23.10
2018-03-23T21:24:56.165Z,22.90
2018-03-23T21:27:22.904Z,23.00
2018-03-23T21:29:49.606Z,22.70
2018-03-23T21:32:17.336Z,22.60
2018-03-23T21:34:44.765Z,22.80
2018-03-23T21:37:11.724Z,22.80
2018-03-23T21:39:38.183Z,22.70
2018-03-23T21:42:05.554Z,22.00
2018-03-23T21:44:32.786Z,22.00
2018-03-23T21:46:59.625Z,22.00
2018-03-23T21:49:26.285Z,21.90
2018-03-23T21:51:53.431Z,21.90
2018-03-23T21:54:20.068Z,22.10
2018-03-23T21:56:46.633Z,21.80
2018-03-23T21:59:13.829Z,21.80
2018-03-23T22:01:40.408Z,21.50
2018-03-23T22:04:07.190Z,21.80
2018-03-23T22:06:34.407Z,21.60
2018-03-23T22:09:01.276Z,21.50
2018-03-23T22:11:27.930Z,21.50
2018-03-23T22:13:54.414Z,21.50
2018-03-23T22:16:20.868Z,21.10
2018-03-23T22:18:48.145Z,21.10
2018-03-23T22:21:14.593Z,21.10
2018-03-23T22:23:41.240Z,21.20
2018-03-23T22:26:08.385Z,21.00
2018-03-23T22:28:34.803Z,21.10
2018-03-23T22:31:01.884Z,20.90
2018-03-23T22:33:28.833Z,21.00
2018-03-23T22:35:55.337Z,21.00
2018-03-23T22:38:23.037Z,20.90
2018-03-23T22:40:49.448Z,20.90
2018-03-23T22:43:16.038Z,20.90
2018-03-23T22:45:43.579Z,20.80
2018-03-23T22:48:10.025Z,20.80
2018-03-23T22:50:36.820Z,20.70
2018-03-23T22:53:03.874Z,20.30
2018-03-23T22:55:31.434Z,20.40
2018-03-23T22:57:57.865Z,20.40
2018-03-23T23:00:24.975Z,20.30
2018-03-23T23:02:51.759Z,20.10
2018-03-23T23:05:18.955Z,19.90
2018-03-23T23:07:46.309Z,20.00
2018-03-23T23:10:12.739Z,20.00
2018-03-23T23:12:40.381Z,20.30
2018-03-23T23:15:06.806Z,19.90
2018-03-23T23:17:34.443Z,19.90
2018-03-23T23:20:00.942Z,19.90
2018-03-23T23:22:28.136Z,20.10
2018-03-23T23:24:55.773Z,20.10
2018-03-23T23:27:22.237Z,19.50
2018-03-23T23:29:48.651Z,19.80
2018-03-23T23:32:15.614Z,20.10
2018-03-23T23:34:43.358Z,20.00
2018-03-23T23:37:10.236Z,19.50
2018-03-23T23:39:37.633Z,19.50
2018-03-23T23:42:04.780Z,19.90
2018-03-23T23:44:32.335Z,19.40
2018-03-23T23:47:01.328Z,19.30
2018-03-23T23:49:27.748Z,19.60
2018-03-23T23:51:55.021Z,19.50
2018-03-23T23:54:21.457Z,19.40
2018-03-23T23:56:49.056Z,19.40
2018-03-23T23:59:16.985Z,19.60
